Main page
METAR-TAF:

METAR-TAF

Airports :

Gachsaran, Iran

latitude: 30-26N, longitude: 050-46E, elevation: 738 m

Current weather observation

The report was made 41 minutes ago, at 03:00 UTC
Calm wind
Temperature 24°C
Humidity 29%
Pressure 1015 hPa
Visibility: 6000 m
Scattered clouds at a height of 4000 ft

METAR: OIAH 290300Z 00000KT 6000 SCT040 24/05 Q1015

Time: 08:11 (03:41 UTC)


TAF: missing

Weather observations and forecasts of more than 4000 airports (METAR and TAF reports).

The available stations are represented by yellow and red dots on the map.

Hover mouse over dot to see the name of the station.

Then click to see weather observations and forecasts.

To change the map : click on the green buttons with a black cross to zoom in, on the green button with a dash to zoom out, or on the green arrows for adjacent maps.


METAR-TAF: